createdAt,value
2022-12-31T00:02:18.996Z,88.82
2022-12-31T00:04:45.694Z,88.57
2022-12-31T00:07:12.350Z,88.21
2022-12-31T00:09:39.058Z,88.26
2022-12-31T00:12:05.875Z,87.88
2022-12-31T00:14:32.415Z,87.60
2022-12-31T00:16:59.016Z,87.47
2022-12-31T00:19:25.677Z,87.52
2022-12-31T00:21:52.305Z,87.12
2022-12-31T00:24:18.901Z,87.09
2022-12-31T00:26:45.503Z,87.05
2022-12-31T00:29:12.257Z,86.92
2022-12-31T00:31:39.413Z,87.41
2022-12-31T00:34:07.141Z,87.92
2022-12-31T00:36:37.321Z,88.42
2022-12-31T00:39:06.131Z,88.52
2022-12-31T00:41:32.803Z,88.33
2022-12-31T00:43:59.707Z,88.22
2022-12-31T00:46:26.608Z,88.00
2022-12-31T00:48:53.531Z,87.79
2022-12-31T00:51:23.268Z,87.53
2022-12-31T00:53:50.276Z,87.25
2022-12-31T00:56:20.235Z,86.90
2022-12-31T00:58:47.450Z,86.63
2022-12-31T01:01:20.014Z,86.39
2022-12-31T01:03:48.946Z,86.06
2022-12-31T01:06:16.252Z,85.88
2022-12-31T01:08:43.838Z,86.06
2022-12-31T01:11:24.606Z,86.06
2022-12-31T01:13:54.893Z,86.19
2022-12-31T01:16:25.453Z,86.13
2022-12-31T01:18:53.058Z,85.98
2022-12-31T01:21:21.013Z,86.11
2022-12-31T01:23:47.985Z,85.99
2022-12-31T01:26:16.656Z,85.57
2022-12-31T01:28:43.286Z,85.34
2022-12-31T01:31:12.881Z,85.55
2022-12-31T01:33:40.549Z,85.99
2022-12-31T01:36:11.484Z,85.87
2022-12-31T01:38:38.607Z,85.57
2022-12-31T01:41:05.619Z,85.58
2022-12-31T01:43:54.224Z,85.39
2022-12-31T01:46:25.848Z,85.70
2022-12-31T01:48:57.829Z,86.23
2022-12-31T01:51:27.317Z,86.77
2022-12-31T01:53:54.783Z,87.03
2022-12-31T01:56:22.911Z,87.06
2022-12-31T01:58:52.339Z,87.05
2022-12-31T02:01:29.102Z,87.22
2022-12-31T02:03:57.912Z,87.95
2022-12-31T02:06:32.016Z,87.82
2022-12-31T02:08:58.652Z,87.47
2022-12-31T02:11:28.976Z,87.36
2022-12-31T02:14:00.570Z,87.36
2022-12-31T02:16:46.161Z,87.48
2022-12-31T02:19:43.627Z,87.81
2022-12-31T02:22:38.715Z,88.20
2022-12-31T02:25:30.053Z,88.32
2022-12-31T02:28:44.772Z,88.84
2022-12-31T02:31:35.469Z,89.35
2022-12-31T02:34:21.868Z,89.20
2022-12-31T02:36:52.093Z,89.11
2022-12-31T02:39:18.721Z,89.03
2022-12-31T02:41:52.083Z,88.83
2022-12-31T02:44:38.750Z,88.58
2022-12-31T02:47:11.492Z,88.58
2022-12-31T02:49:53.193Z,88.50
2022-12-31T02:52:38.370Z,88.28
2022-12-31T02:55:49.946Z,88.11
2022-12-31T02:58:46.424Z,87.90
2022-12-31T03:01:36.993Z,87.91
2022-12-31T03:04:24.452Z,88.18
2022-12-31T03:06:52.555Z,88.30
2022-12-31T03:09:19.216Z,87.93
2022-12-31T03:12:04.961Z,87.97
2022-12-31T03:14:31.501Z,87.96
2022-12-31T03:16:58.104Z,87.89
2022-12-31T03:19:43.032Z,87.91
2022-12-31T03:22:27.885Z,87.70
2022-12-31T03:25:20.331Z,87.80
2022-12-31T03:27:47.433Z,88.07
2022-12-31T03:30:16.889Z,87.86
2022-12-31T03:32:45.114Z,88.07
2022-12-31T03:35:14.155Z,88.33
2022-12-31T03:37:41.324Z,88.36
2022-12-31T03:40:11.052Z,88.20
2022-12-31T03:42:37.869Z,88.15
2022-12-31T03:45:05.359Z,88.15
2022-12-31T03:47:32.011Z,87.95
2022-12-31T03:49:58.647Z,88.04
2022-12-31T03:52:25.177Z,87.97
2022-12-31T03:54:51.717Z,87.69
2022-12-31T03:57:18.411Z,87.65
2022-12-31T03:59:45.027Z,87.50
2022-12-31T04:02:11.758Z,87.59
2022-12-31T04:04:38.432Z,87.32
2022-12-31T04:07:04.993Z,87.40
2022-12-31T04:09:31.569Z,87.58
2022-12-31T04:11:58.338Z,87.39
2022-12-31T04:14:24.930Z,87.47
2022-12-31T04:16:51.612Z,87.53
2022-12-31T04:19:18.272Z,87.68
2022-12-31T04:21:44.897Z,87.69
2022-12-31T04:24:11.610Z,87.74
2022-12-31T04:26:38.582Z,87.81
2022-12-31T04:29:05.696Z,87.91
2022-12-31T04:31:33.355Z,87.75
2022-12-31T04:33:59.961Z,87.78
2022-12-31T04:36:27.286Z,87.70
2022-12-31T04:38:53.980Z,87.85
2022-12-31T04:41:21.185Z,87.86
2022-12-31T04:43:50.498Z,87.86
2022-12-31T04:46:19.679Z,87.82
2022-12-31T04:48:46.427Z,87.79
2022-12-31T04:51:13.994Z,87.83
2022-12-31T04:53:41.216Z,87.69
2022-12-31T04:56:08.815Z,87.71
2022-12-31T04:58:36.953Z,87.78
2022-12-31T05:01:04.016Z,87.72
2022-12-31T05:03:31.290Z,87.69
2022-12-31T05:06:02.780Z,87.73
2022-12-31T05:08:30.003Z,87.73
2022-12-31T05:10:56.715Z,87.71
2022-12-31T05:13:28.068Z,87.66
2022-12-31T05:15:59.587Z,87.54
2022-12-31T05:18:26.443Z,87.58
2022-12-31T05:20:53.068Z,87.40
2022-12-31T05:23:19.910Z,87.61
2022-12-31T05:25:47.900Z,87.44
2022-12-31T05:28:15.475Z,87.47
2022-12-31T05:30:43.032Z,87.53
2022-12-31T05:33:10.032Z,87.37
2022-12-31T05:35:37.216Z,87.36
2022-12-31T05:38:03.890Z,87.62
2022-12-31T05:40:30.485Z,87.69
2022-12-31T05:42:57.129Z,87.70
2022-12-31T05:45:30.143Z,87.90
2022-12-31T05:47:57.504Z,87.92
2022-12-31T05:50:24.344Z,88.11
2022-12-31T05:52:50.888Z,87.81
2022-12-31T05:55:17.715Z,87.92
2022-12-31T05:57:44.383Z,87.93
2022-12-31T06:00:11.751Z,87.96
2022-12-31T06:02:38.516Z,88.09
2022-12-31T06:05:05.811Z,88.06
2022-12-31T06:07:32.460Z,88.18
2022-12-31T06:09:59.194Z,88.16
2022-12-31T06:12:25.942Z,88.34
2022-12-31T06:14:52.608Z,88.50
2022-12-31T06:17:19.288Z,88.28
2022-12-31T06:19:46.930Z,88.27
2022-12-31T06:22:13.666Z,88.59
2022-12-31T06:24:40.280Z,88.44
2022-12-31T06:27:06.898Z,88.73
2022-12-31T06:29:33.618Z,88.97
2022-12-31T06:32:00.374Z,88.87
2022-12-31T06:34:27.053Z,89.10
2022-12-31T06:36:53.606Z,88.81
2022-12-31T06:39:20.159Z,88.98
2022-12-31T06:41:47.176Z,89.12
2022-12-31T06:44:14.957Z,88.93
2022-12-31T06:46:41.664Z,89.08
2022-12-31T06:49:09.485Z,88.99
2022-12-31T06:51:36.156Z,89.16
2022-12-31T06:54:02.757Z,89.08
2022-12-31T06:56:34.392Z,89.32
2022-12-31T06:59:03.250Z,89.13
2022-12-31T07:01:48.371Z,89.45
2022-12-31T07:04:32.967Z,89.76
2022-12-31T07:07:21.472Z,89.78
2022-12-31T07:10:29.769Z,89.71
2022-12-31T07:13:17.718Z,89.92
2022-12-31T07:15:52.821Z,89.69
2022-12-31T07:18:43.864Z,89.84
2022-12-31T07:21:16.533Z,89.86
2022-12-31T07:23:43.763Z,89.72
2022-12-31T07:26:42.729Z,89.77
2022-12-31T07:29:18.972Z,89.91
2022-12-31T07:32:16.453Z,89.86
2022-12-31T07:35:04.919Z,89.71
2022-12-31T07:37:45.092Z,89.76
2022-12-31T07:40:17.816Z,89.82
2022-12-31T07:43:12.306Z,89.79
2022-12-31T07:46:01.531Z,89.83
2022-12-31T07:48:29.142Z,89.62
2022-12-31T07:50:57.467Z,89.64
2022-12-31T07:53:26.108Z,89.51
2022-12-31T07:55:59.883Z,89.63
2022-12-31T07:58:33.190Z,89.35
2022-12-31T08:01:00.653Z,89.47
2022-12-31T08:04:09.662Z,89.34
2022-12-31T08:07:13.832Z,89.11
2022-12-31T08:09:49.196Z,89.05
2022-12-31T08:12:16.605Z,89.02
2022-12-31T08:14:46.118Z,88.90
2022-12-31T08:17:18.094Z,88.97
2022-12-31T08:19:45.968Z,88.43
2022-12-31T08:22:50.399Z,88.19
2022-12-31T08:25:23.722Z,87.78
2022-12-31T08:28:04.883Z,87.24
2022-12-31T08:30:52.328Z,86.90
2022-12-31T08:33:40.459Z,86.62
2022-12-31T08:36:45.589Z,86.10
2022-12-31T08:39:35.961Z,85.48
2022-12-31T08:42:12.266Z,85.32
2022-12-31T08:44:41.852Z,84.75
2022-12-31T08:47:32.883Z,84.47
2022-12-31T08:50:02.532Z,84.33
2022-12-31T08:52:29.393Z,84.31
2022-12-31T08:54:56.283Z,84.28
2022-12-31T08:57:59.381Z,84.32
2022-12-31T09:00:27.753Z,84.27
2022-12-31T09:03:20.836Z,84.30
2022-12-31T09:06:12.984Z,84.26
2022-12-31T09:08:55.844Z,84.01
2022-12-31T09:11:33.124Z,84.11
2022-12-31T09:14:08.655Z,83.67
2022-12-31T09:17:00.159Z,83.34
2022-12-31T09:19:27.249Z,83.40
2022-12-31T09:21:54.229Z,83.41
2022-12-31T09:24:21.607Z,83.73
2022-12-31T09:26:51.138Z,83.48
2022-12-31T09:29:29.759Z,83.21
2022-12-31T09:31:56.418Z,83.04
2022-12-31T09:34:41.452Z,82.68
2022-12-31T09:37:16.505Z,82.44
2022-12-31T09:39:46.738Z,82.24
2022-12-31T09:42:51.038Z,81.83
2022-12-31T09:45:47.458Z,81.64
2022-12-31T09:48:35.777Z,81.52
2022-12-31T09:51:25.255Z,81.41
2022-12-31T09:53:52.250Z,81.37
2022-12-31T09:57:06.905Z,81.12
2022-12-31T09:59:34.462Z,80.87
2022-12-31T10:02:34.837Z,80.92
2022-12-31T10:05:31.379Z,80.78
2022-12-31T10:08:10.197Z,80.84
2022-12-31T10:11:17.022Z,80.75
2022-12-31T10:14:06.744Z,80.50
2022-12-31T10:16:51.505Z,80.59
2022-12-31T10:19:34.595Z,80.61
2022-12-31T10:22:35.401Z,80.73
2022-12-31T10:25:38.360Z,80.59
2022-12-31T10:28:31.188Z,80.84
2022-12-31T10:31:11.332Z,80.76
2022-12-31T10:34:06.776Z,80.48
2022-12-31T10:37:02.249Z,80.61
2022-12-31T10:39:50.834Z,80.46
2022-12-31T10:42:39.077Z,80.52
2022-12-31T10:45:39.639Z,80.32
2022-12-31T10:48:37.055Z,80.42
2022-12-31T10:51:15.443Z,80.44
2022-12-31T10:54:18.984Z,80.38
2022-12-31T10:57:11.358Z,80.34
2022-12-31T10:59:56.909Z,80.36
2022-12-31T11:02:29.803Z,80.32
2022-12-31T11:05:03.169Z,80.39
2022-12-31T11:08:01.812Z,80.31
2022-12-31T11:11:00.972Z,80.40
2022-12-31T11:13:57.950Z,80.26
2022-12-31T11:16:43.091Z,80.20
2022-12-31T11:19:31.512Z,80.39
2022-12-31T11:22:04.022Z,80.46
2022-12-31T11:25:02.108Z,80.23
2022-12-31T11:28:03.369Z,80.21
2022-12-31T11:30:36.934Z,80.40
2022-12-31T11:33:21.876Z,80.29
2022-12-31T11:36:09.371Z,80.35
2022-12-31T11:38:51.045Z,80.23
2022-12-31T11:41:42.683Z,80.22
2022-12-31T11:44:30.151Z,80.17
2022-12-31T11:47:04.498Z,80.05
2022-12-31T11:49:31.095Z,80.14
2022-12-31T11:52:35.280Z,80.20
2022-12-31T11:55:20.654Z,80.26
2022-12-31T11:57:50.730Z,80.18
2022-12-31T12:00:28.536Z,80.31
2022-12-31T12:03:03.566Z,80.00
2022-12-31T12:05:30.863Z,79.92
2022-12-31T12:07:57.710Z,79.80
2022-12-31T12:10:35.608Z,79.52
2022-12-31T12:13:13.746Z,79.36
2022-12-31T12:15:44.795Z,79.52
2022-12-31T12:18:25.235Z,79.42
2022-12-31T12:20:52.050Z,79.49
2022-12-31T12:23:26.105Z,79.42
2022-12-31T12:25:53.378Z,79.30
2022-12-31T12:28:26.927Z,79.28
2022-12-31T12:31:05.153Z,79.31
2022-12-31T12:33:43.871Z,79.22
2022-12-31T12:36:13.851Z,79.02
2022-12-31T12:38:40.434Z,79.18
2022-12-31T12:41:20.247Z,78.99
2022-12-31T12:43:47.226Z,78.94
2022-12-31T12:46:27.788Z,78.74
2022-12-31T12:48:56.799Z,78.85
2022-12-31T12:52:01.762Z,79.00
2022-12-31T12:54:59.521Z,78.90
2022-12-31T12:57:41.011Z,79.06
2022-12-31T13:00:21.078Z,79.00
2022-12-31T13:03:06.065Z,79.16
2022-12-31T13:06:00.337Z,78.89
2022-12-31T13:08:33.244Z,78.86
2022-12-31T13:11:19.016Z,78.76
2022-12-31T13:14:05.469Z,78.92
2022-12-31T13:16:50.578Z,78.75
2022-12-31T13:19:46.763Z,78.76
2022-12-31T13:22:30.308Z,78.63
2022-12-31T13:25:16.948Z,78.64
2022-12-31T13:27:48.253Z,78.80
2022-12-31T13:30:28.250Z,78.81
2022-12-31T13:33:05.312Z,78.71
2022-12-31T13:35:47.501Z,78.75
2022-12-31T13:38:24.294Z,78.69
2022-12-31T13:41:03.093Z,78.67
2022-12-31T13:44:10.766Z,78.63
2022-12-31T13:46:46.462Z,78.70
2022-12-31T13:49:32.043Z,78.90
2022-12-31T13:52:43.212Z,78.73
2022-12-31T13:55:20.329Z,78.67
2022-12-31T13:57:55.462Z,78.93
2022-12-31T14:00:31.359Z,78.77
2022-12-31T14:03:11.032Z,78.66
2022-12-31T14:05:51.838Z,78.65
2022-12-31T14:08:19.010Z,78.85
2022-12-31T14:11:29.495Z,78.79
2022-12-31T14:14:25.620Z,78.69
2022-12-31T14:17:01.421Z,78.86
2022-12-31T14:19:55.656Z,78.92
2022-12-31T14:22:39.322Z,78.99
2022-12-31T14:25:22.607Z,79.12
2022-12-31T14:27:53.492Z,79.01
2022-12-31T14:30:23.280Z,79.48
2022-12-31T14:33:29.873Z,79.43
2022-12-31T14:36:14.207Z,79.27
2022-12-31T14:39:06.303Z,79.29
2022-12-31T14:41:51.587Z,79.43
2022-12-31T14:44:23.011Z,79.59
2022-12-31T14:47:04.882Z,79.95
2022-12-31T14:50:03.765Z,80.04
2022-12-31T14:52:46.763Z,80.04
2022-12-31T14:55:36.946Z,80.39
2022-12-31T14:58:29.444Z,80.46
2022-12-31T15:01:01.625Z,80.52
2022-12-31T15:03:31.364Z,80.91
2022-12-31T15:06:06.087Z,81.14
2022-12-31T15:09:07.620Z,81.05
2022-12-31T15:11:56.662Z,81.12
2022-12-31T15:14:51.170Z,81.22
2022-12-31T15:17:17.785Z,81.15
2022-12-31T15:20:14.986Z,80.96
2022-12-31T15:22:50.669Z,80.97
2022-12-31T15:25:36.949Z,80.86
2022-12-31T15:28:21.166Z,80.73
2022-12-31T15:30:49.753Z,80.57
2022-12-31T15:33:30.133Z,80.70
2022-12-31T15:35:57.853Z,80.73
2022-12-31T15:38:34.924Z,80.66
2022-12-31T15:41:24.780Z,80.54
2022-12-31T15:44:02.222Z,80.62
2022-12-31T15:46:33.842Z,80.27
2022-12-31T15:49:09.003Z,80.44
2022-12-31T15:52:07.437Z,80.18
2022-12-31T15:54:44.327Z,80.34
2022-12-31T15:57:30.001Z,80.30
2022-12-31T16:00:08.997Z,80.35
2022-12-31T16:02:39.388Z,80.62
2022-12-31T16:05:08.697Z,80.58
2022-12-31T16:07:35.705Z,80.49
2022-12-31T16:10:04.159Z,80.51
2022-12-31T16:12:39.456Z,80.57
2022-12-31T16:15:24.691Z,80.70
2022-12-31T16:18:06.097Z,80.87
2022-12-31T16:20:34.399Z,80.88
2022-12-31T16:23:03.428Z,80.83
2022-12-31T16:25:33.566Z,80.77
2022-12-31T16:28:03.199Z,80.95
2022-12-31T16:30:32.559Z,81.11
2022-12-31T16:33:02.549Z,81.24
2022-12-31T16:35:36.564Z,81.12
2022-12-31T16:38:10.219Z,81.25
2022-12-31T16:40:36.948Z,81.45
2022-12-31T16:43:04.386Z,81.20
2022-12-31T16:45:38.702Z,81.38
2022-12-31T16:48:17.188Z,81.40
2022-12-31T16:50:46.996Z,81.46
2022-12-31T16:53:18.161Z,81.37
2022-12-31T16:56:19.991Z,81.38
2022-12-31T16:58:46.625Z,81.64
2022-12-31T17:01:20.916Z,81.81
2022-12-31T17:03:52.473Z,81.82
2022-12-31T17:06:21.176Z,81.67
2022-12-31T17:09:00.795Z,81.86
2022-12-31T17:11:33.226Z,81.96
2022-12-31T17:14:05.927Z,81.82
2022-12-31T17:16:34.698Z,81.94
2022-12-31T17:19:01.819Z,81.96
2022-12-31T17:21:31.447Z,82.21
2022-12-31T17:24:03.300Z,82.08
2022-12-31T17:26:37.157Z,82.08
2022-12-31T17:29:06.130Z,82.00
2022-12-31T17:31:40.440Z,81.90
2022-12-31T17:34:13.055Z,82.05
2022-12-31T17:37:15.913Z,82.02
2022-12-31T17:39:46.488Z,82.02
2022-12-31T17:42:24.787Z,82.16
2022-12-31T17:44:56.704Z,81.86
2022-12-31T17:47:23.399Z,81.72
2022-12-31T17:49:50.206Z,81.74
2022-12-31T17:52:16.775Z,81.58
2022-12-31T17:54:43.446Z,81.57
2022-12-31T17:57:24.273Z,81.43
2022-12-31T17:59:51.111Z,81.35
2022-12-31T18:02:17.812Z,81.46
2022-12-31T18:04:44.616Z,81.46
2022-12-31T18:07:11.228Z,81.36
2022-12-31T18:09:37.861Z,81.37
2022-12-31T18:12:06.192Z,81.32
2022-12-31T18:14:33.484Z,81.40
2022-12-31T18:17:00.804Z,81.35
2022-12-31T18:20:02.933Z,81.37
2022-12-31T18:22:16.232Z,81.23
2022-12-31T18:24:44.047Z,81.06
2022-12-31T18:27:18.539Z,80.91
2022-12-31T18:29:45.500Z,80.76
2022-12-31T18:32:24.148Z,80.94
2022-12-31T18:34:51.421Z,80.53
2022-12-31T18:37:22.065Z,80.96
2022-12-31T18:39:49.368Z,80.70
2022-12-31T18:42:18.599Z,80.67
2022-12-31T18:44:45.856Z,80.73
2022-12-31T18:47:14.585Z,80.96
2022-12-31T18:49:41.554Z,80.84
2022-12-31T18:52:16.671Z,80.67
2022-12-31T18:54:43.513Z,80.66
2022-12-31T18:57:14.920Z,80.74
2022-12-31T18:59:42.408Z,80.70
2022-12-31T19:02:20.081Z,80.50
2022-12-31T19:04:48.158Z,80.51
2022-12-31T19:07:14.740Z,80.64
2022-12-31T19:09:46.007Z,80.48
2022-12-31T19:12:14.276Z,80.45
2022-12-31T19:14:40.940Z,80.41
2022-12-31T19:19:32.997Z,80.42
2022-12-31T19:21:59.567Z,80.50
2022-12-31T19:24:27.299Z,80.36
2022-12-31T19:26:54.751Z,80.53
2022-12-31T19:29:23.925Z,80.24
2022-12-31T19:31:51.204Z,80.14
2022-12-31T19:34:17.960Z,80.22
2022-12-31T19:36:45.088Z,80.03
2022-12-31T19:39:20.034Z,79.96
2022-12-31T19:41:51.687Z,80.16
2022-12-31T19:44:22.945Z,80.20
2022-12-31T19:46:49.575Z,80.04
2022-12-31T19:49:16.626Z,80.06
2022-12-31T19:51:43.408Z,80.08
2022-12-31T19:54:12.892Z,80.30
2022-12-31T19:56:39.544Z,80.41
2022-12-31T19:59:08.142Z,80.27
2022-12-31T20:01:34.985Z,80.31
2022-12-31T20:04:01.675Z,80.31
2022-12-31T20:06:28.318Z,80.36
2022-12-31T20:08:55.113Z,80.35
2022-12-31T20:11:23.975Z,80.37
2022-12-31T20:13:52.785Z,80.40
2022-12-31T20:16:21.380Z,80.66
2022-12-31T20:18:51.336Z,80.77
2022-12-31T20:21:21.673Z,80.65
2022-12-31T20:23:50.140Z,80.79
2022-12-31T20:26:17.788Z,81.05
2022-12-31T20:28:44.521Z,81.06
2022-12-31T20:31:15.074Z,81.23
2022-12-31T20:33:42.220Z,81.15
2022-12-31T20:36:12.494Z,81.64
2022-12-31T20:38:39.119Z,81.60
2022-12-31T20:41:11.487Z,81.50
2022-12-31T20:43:38.864Z,81.87
2022-12-31T20:46:16.634Z,81.98
2022-12-31T20:48:46.231Z,81.87
2022-12-31T20:51:14.348Z,81.62
2022-12-31T20:53:46.488Z,81.57
2022-12-31T20:56:13.105Z,81.72
2022-12-31T20:58:39.682Z,82.04
2022-12-31T21:01:07.964Z,82.17
2022-12-31T21:06:28.655Z,82.27
2022-12-31T21:09:00.158Z,82.52
2022-12-31T21:11:45.885Z,82.55
2022-12-31T21:14:12.581Z,82.08
2022-12-31T21:16:39.319Z,82.00
2022-12-31T21:19:06.163Z,81.89
2022-12-31T21:21:33.071Z,81.86
2022-12-31T21:23:59.752Z,81.89
2022-12-31T21:26:26.379Z,81.98
2022-12-31T21:28:53.941Z,82.09
2022-12-31T21:31:20.784Z,81.57
2022-12-31T21:33:48.533Z,81.55
2022-12-31T21:36:15.900Z,81.34
2022-12-31T21:38:42.667Z,81.31
2022-12-31T21:41:33.603Z,81.16
2022-12-31T21:44:01.456Z,81.14
2022-12-31T21:46:28.419Z,81.12
2022-12-31T21:48:59.740Z,80.71
2022-12-31T21:51:27.327Z,80.99
2022-12-31T21:53:54.360Z,81.08
2022-12-31T21:56:22.626Z,80.94
2022-12-31T21:59:14.464Z,80.92
2022-12-31T22:01:59.772Z,81.14
2022-12-31T22:07:13.365Z,81.20
2022-12-31T22:09:39.974Z,81.08
2022-12-31T22:12:06.711Z,81.01
2022-12-31T22:14:33.306Z,81.19
2022-12-31T22:17:00.921Z,81.34
2022-12-31T22:19:27.582Z,81.48
2022-12-31T22:21:54.537Z,81.50
2022-12-31T22:24:21.100Z,81.49
2022-12-31T22:26:47.640Z,81.65
2022-12-31T22:29:14.508Z,81.72
2022-12-31T22:31:41.124Z,81.73
2022-12-31T22:34:07.821Z,81.56
2022-12-31T22:36:34.455Z,81.81
2022-12-31T22:39:01.053Z,82.04
2022-12-31T22:41:28.350Z,82.21
2022-12-31T22:44:03.065Z,82.57
2022-12-31T22:46:31.345Z,82.56
2022-12-31T22:48:59.655Z,82.81
2022-12-31T22:51:57.026Z,82.57
2022-12-31T22:54:15.254Z,82.83
2022-12-31T22:56:42.068Z,82.77
2022-12-31T22:59:09.503Z,83.09
2022-12-31T23:01:36.179Z,82.89
2022-12-31T23:04:03.721Z,82.88
2022-12-31T23:06:30.412Z,82.79
2022-12-31T23:09:32.417Z,82.86
2022-12-31T23:11:59.742Z,83.01
2022-12-31T23:14:45.112Z,83.07
2022-12-31T23:17:44.145Z,83.34
2022-12-31T23:20:36.001Z,83.47
2022-12-31T23:23:05.838Z,83.60
2022-12-31T23:25:34.342Z,83.72
2022-12-31T23:28:01.191Z,83.82
2022-12-31T23:30:28.141Z,83.97
2022-12-31T23:32:54.977Z,83.98
2022-12-31T23:35:21.858Z,83.70
2022-12-31T23:37:48.553Z,83.69
2022-12-31T23:40:20.982Z,83.58
2022-12-31T23:42:49.119Z,83.42
2022-12-31T23:45:15.871Z,83.36
2022-12-31T23:47:42.466Z,83.30
2022-12-31T23:50:09.127Z,83.47
2022-12-31T23:52:35.796Z,83.45
2022-12-31T23:55:03.745Z,83.18
2022-12-31T23:57:30.659Z,83.26
2022-12-31T23:59:57.303Z,82.98
